sensor_id;sensor_type;location;lat;lon;timestamp;temperature;humidity
23411;DHT22;11878;51.774;7.220;2023-06-04T00:02:21;12.00;99.90
23411;DHT22;11878;51.774;7.220;2023-06-04T00:05:23;12.10;99.90
23411;DHT22;11878;51.774;7.220;2023-06-04T00:08:26;12.00;99.90
23411;DHT22;11878;51.774;7.220;2023-06-04T00:11:28;12.00;99.90
23411;DHT22;11878;51.774;7.220;2023-06-04T00:14:30;12.10;99.90
23411;DHT22;11878;51.774;7.220;2023-06-04T00:17:32;12.10;99.90
23411;DHT22;11878;51.774;7.220;2023-06-04T00:20:34;12.10;99.90
23411;DHT22;11878;51.774;7.220;2023-06-04T00:23:36;12.10;99.90
23411;DHT22;11878;51.774;7.220;2023-06-04T00:26:38;12.10;99.90
23411;DHT22;11878;51.774;7.220;2023-06-04T00:29:40;12.10;99.90
23411;DHT22;11878;51.774;7.220;2023-06-04T00:32:42;12.20;99.90
23411;DHT22;11878;51.774;7.220;2023-06-04T00:35:44;12.10;99.90
23411;DHT22;11878;51.774;7.220;2023-06-04T00:38:46;12.20;99.90
23411;DHT22;11878;51.774;7.220;2023-06-04T00:41:48;12.30;99.90
23411;DHT22;11878;51.774;7.220;2023-06-04T00:44:49;12.20;99.90
23411;DHT22;11878;51.774;7.220;2023-06-04T00:47:52;12.30;99.90
23411;DHT22;11878;51.774;7.220;2023-06-04T00:50:54;12.20;99.90
23411;DHT22;11878;51.774;7.220;2023-06-04T00:53:56;12.10;99.90
23411;DHT22;11878;51.774;7.220;2023-06-04T00:56:59;12.00;99.90
23411;DHT22;11878;51.774;7.220;2023-06-04T01:00:01;11.90;99.90
23411;DHT22;11878;51.774;7.220;2023-06-04T01:03:07;12.00;99.90
23411;DHT22;11878;51.774;7.220;2023-06-04T01:06:19;11.90;99.90
23411;DHT22;11878;51.774;7.220;2023-06-04T01:09:24;11.80;99.90
23411;DHT22;11878;51.774;7.220;2023-06-04T01:12:26;11.80;99.90
23411;DHT22;11878;51.774;7.220;2023-06-04T01:15:28;11.80;99.90
23411;DHT22;11878;51.774;7.220;2023-06-04T01:18:31;11.90;99.90
23411;DHT22;11878;51.774;7.220;2023-06-04T01:21:38;11.80;99.90
23411;DHT22;11878;51.774;7.220;2023-06-04T01:24:41;11.80;99.90
23411;DHT22;11878;51.774;7.220;2023-06-04T01:27:48;11.80;99.90
23411;DHT22;11878;51.774;7.220;2023-06-04T01:30:52;11.70;99.90
23411;DHT22;11878;51.774;7.220;2023-06-04T01:33:55;11.70;99.90
23411;DHT22;11878;51.774;7.220;2023-06-04T01:37:00;11.70;99.90
23411;DHT22;11878;51.774;7.220;2023-06-04T01:40:02;11.70;99.90
23411;DHT22;11878;51.774;7.220;2023-06-04T01:43:04;11.70;99.90
23411;DHT22;11878;51.774;7.220;2023-06-04T01:46:06;11.70;99.90
23411;DHT22;11878;51.774;7.220;2023-06-04T01:49:08;11.70;99.90
23411;DHT22;11878;51.774;7.220;2023-06-04T01:52:10;11.50;99.90
23411;DHT22;11878;51.774;7.220;2023-06-04T01:55:14;11.50;99.90
23411;DHT22;11878;51.774;7.220;2023-06-04T01:58:16;11.40;99.90
23411;DHT22;11878;51.774;7.220;2023-06-04T02:01:28;11.40;99.90
23411;DHT22;11878;51.774;7.220;2023-06-04T02:04:30;11.30;99.90
23411;DHT22;11878;51.774;7.220;2023-06-04T02:07:32;11.30;99.90
23411;DHT22;11878;51.774;7.220;2023-06-04T02:10:36;11.20;99.90
23411;DHT22;11878;51.774;7.220;2023-06-04T02:13:37;11.20;99.90
23411;DHT22;11878;51.774;7.220;2023-06-04T02:16:40;11.10;99.90
23411;DHT22;11878;51.774;7.220;2023-06-04T02:19:43;11.00;99.90
23411;DHT22;11878;51.774;7.220;2023-06-04T02:22:46;11.00;99.90
23411;DHT22;11878;51.774;7.220;2023-06-04T02:25:49;11.10;99.90
23411;DHT22;11878;51.774;7.220;2023-06-04T02:28:51;11.00;99.90
23411;DHT22;11878;51.774;7.220;2023-06-04T02:31:53;11.10;99.90
23411;DHT22;11878;51.774;7.220;2023-06-04T02:34:55;11.00;99.90
23411;DHT22;11878;51.774;7.220;2023-06-04T02:37:57;11.00;99.90
23411;DHT22;11878;51.774;7.220;2023-06-04T02:44:39;10.70;99.90
23411;DHT22;11878;51.774;7.220;2023-06-04T02:47:40;10.70;99.90
23411;DHT22;11878;51.774;7.220;2023-06-04T02:50:42;10.80;99.90
23411;DHT22;11878;51.774;7.220;2023-06-04T02:53:44;10.80;99.90
23411;DHT22;11878;51.774;7.220;2023-06-04T02:57:12;10.70;99.90
23411;DHT22;11878;51.774;7.220;2023-06-04T03:00:15;10.70;99.90
23411;DHT22;11878;51.774;7.220;2023-06-04T03:03:17;10.50;99.90
23411;DHT22;11878;51.774;7.220;2023-06-04T03:06:20;10.40;99.90
23411;DHT22;11878;51.774;7.220;2023-06-04T03:09:22;10.40;99.90
23411;DHT22;11878;51.774;7.220;2023-06-04T03:12:24;10.30;99.90
23411;DHT22;11878;51.774;7.220;2023-06-04T03:15:26;10.40;99.90
23411;DHT22;11878;51.774;7.220;2023-06-04T03:18:28;10.40;99.90
23411;DHT22;11878;51.774;7.220;2023-06-04T03:21:30;10.30;99.90
23411;DHT22;11878;51.774;7.220;2023-06-04T03:24:37;10.30;99.90
23411;DHT22;11878;51.774;7.220;2023-06-04T03:27:50;10.20;99.90
23411;DHT22;11878;51.774;7.220;2023-06-04T03:30:53;10.20;99.90
23411;DHT22;11878;51.774;7.220;2023-06-04T03:33:57;10.20;99.90
23411;DHT22;11878;51.774;7.220;2023-06-04T03:36:59;10.20;99.90
23411;DHT22;11878;51.774;7.220;2023-06-04T03:40:02;10.50;99.90
23411;DHT22;11878;51.774;7.220;2023-06-04T03:43:31;10.00;99.90
23411;DHT22;11878;51.774;7.220;2023-06-04T03:46:40;10.10;99.90
23411;DHT22;11878;51.774;7.220;2023-06-04T03:49:43;10.00;99.90
23411;DHT22;11878;51.774;7.220;2023-06-04T03:52:45;11.90;99.90
23411;DHT22;11878;51.774;7.220;2023-06-04T03:55:47;10.70;99.90
23411;DHT22;11878;51.774;7.220;2023-06-04T03:58:50;10.80;99.90
23411;DHT22;11878;51.774;7.220;2023-06-04T04:01:52;10.00;99.90
23411;DHT22;11878;51.774;7.220;2023-06-04T04:04:55;10.20;99.90
23411;DHT22;11878;51.774;7.220;2023-06-04T04:08:03;11.00;99.90
23411;DHT22;11878;51.774;7.220;2023-06-04T04:11:13;10.00;99.90
23411;DHT22;11878;51.774;7.220;2023-06-04T04:14:18;10.10;99.90
23411;DHT22;11878;51.774;7.220;2023-06-04T04:17:20;10.20;99.90
23411;DHT22;11878;51.774;7.220;2023-06-04T04:20:24;10.30;99.90
23411;DHT22;11878;51.774;7.220;2023-06-04T04:23:33;10.30;99.90
23411;DHT22;11878;51.774;7.220;2023-06-04T04:26:37;11.30;99.90
23411;DHT22;11878;51.774;7.220;2023-06-04T04:29:40;11.30;99.90
23411;DHT22;11878;51.774;7.220;2023-06-04T04:32:47;10.60;99.90
23411;DHT22;11878;51.774;7.220;2023-06-04T04:35:59;11.40;99.90
23411;DHT22;11878;51.774;7.220;2023-06-04T04:39:02;10.60;99.90
23411;DHT22;11878;51.774;7.220;2023-06-04T04:42:07;11.70;99.90
23411;DHT22;11878;51.774;7.220;2023-06-04T04:45:10;10.70;99.90
23411;DHT22;11878;51.774;7.220;2023-06-04T04:48:15;10.60;99.90
23411;DHT22;11878;51.774;7.220;2023-06-04T04:51:24;11.60;99.90
23411;DHT22;11878;51.774;7.220;2023-06-04T04:54:27;12.10;99.90
23411;DHT22;11878;51.774;7.220;2023-06-04T04:57:30;10.50;99.90
23411;DHT22;11878;51.774;7.220;2023-06-04T05:00:33;11.80;99.90
23411;DHT22;11878;51.774;7.220;2023-06-04T05:03:42;11.50;99.90
23411;DHT22;11878;51.774;7.220;2023-06-04T05:06:48;12.20;99.90
23411;DHT22;11878;51.774;7.220;2023-06-04T05:09:50;10.10;99.90
23411;DHT22;11878;51.774;7.220;2023-06-04T05:12:55;12.50;99.90
23411;DHT22;11878;51.774;7.220;2023-06-04T05:16:02;11.80;99.90
23411;DHT22;11878;51.774;7.220;2023-06-04T05:19:11;11.80;99.90
23411;DHT22;11878;51.774;7.220;2023-06-04T05:22:15;11.90;99.90
23411;DHT22;11878;51.774;7.220;2023-06-04T05:25:20;12.00;99.90
23411;DHT22;11878;51.774;7.220;2023-06-04T05:28:23;12.10;99.90
23411;DHT22;11878;51.774;7.220;2023-06-04T05:31:27;12.30;99.90
23411;DHT22;11878;51.774;7.220;2023-06-04T05:34:32;12.50;99.90
23411;DHT22;11878;51.774;7.220;2023-06-04T05:37:35;12.50;99.90
23411;DHT22;11878;51.774;7.220;2023-06-04T05:40:39;12.60;99.90
23411;DHT22;11878;51.774;7.220;2023-06-04T05:43:41;12.70;99.90
23411;DHT22;11878;51.774;7.220;2023-06-04T05:46:47;12.90;99.90
23411;DHT22;11878;51.774;7.220;2023-06-04T05:49:50;12.90;99.90
23411;DHT22;11878;51.774;7.220;2023-06-04T05:52:52;13.00;99.90
23411;DHT22;11878;51.774;7.220;2023-06-04T05:55:55;13.10;99.90
23411;DHT22;11878;51.774;7.220;2023-06-04T05:58:57;13.20;99.90
23411;DHT22;11878;51.774;7.220;2023-06-04T06:02:01;14.60;99.90
23411;DHT22;11878;51.774;7.220;2023-06-04T06:05:04;13.40;99.90
23411;DHT22;11878;51.774;7.220;2023-06-04T06:08:09;13.30;99.90
23411;DHT22;11878;51.774;7.220;2023-06-04T06:11:12;13.60;99.90
23411;DHT22;11878;51.774;7.220;2023-06-04T06:14:19;13.80;99.90
23411;DHT22;11878;51.774;7.220;2023-06-04T06:17:22;13.50;99.90
23411;DHT22;11878;51.774;7.220;2023-06-04T06:20:27;14.00;99.90
23411;DHT22;11878;51.774;7.220;2023-06-04T06:23:31;13.70;99.90
23411;DHT22;11878;51.774;7.220;2023-06-04T06:26:34;14.90;99.90
23411;DHT22;11878;51.774;7.220;2023-06-04T06:29:43;14.80;99.90
23411;DHT22;11878;51.774;7.220;2023-06-04T06:32:53;14.00;99.90
23411;DHT22;11878;51.774;7.220;2023-06-04T06:36:05;14.10;99.90
23411;DHT22;11878;51.774;7.220;2023-06-04T06:39:13;14.30;99.30
23411;DHT22;11878;51.774;7.220;2023-06-04T06:42:15;15.90;99.70
23411;DHT22;11878;51.774;7.220;2023-06-04T06:45:22;14.40;99.50
23411;DHT22;11878;51.774;7.220;2023-06-04T06:48:24;14.40;99.10
23411;DHT22;11878;51.774;7.220;2023-06-04T06:51:26;14.80;98.60
23411;DHT22;11878;51.774;7.220;2023-06-04T06:54:31;16.10;98.00
23411;DHT22;11878;51.774;7.220;2023-06-04T06:57:33;16.80;98.00
23411;DHT22;11878;51.774;7.220;2023-06-04T07:00:37;15.10;97.10
23411;DHT22;11878;51.774;7.220;2023-06-04T07:03:40;15.00;95.50
23411;DHT22;11878;51.774;7.220;2023-06-04T07:06:44;16.60;98.00
23411;DHT22;11878;51.774;7.220;2023-06-04T07:09:46;16.40;94.80
23411;DHT22;11878;51.774;7.220;2023-06-04T07:12:48;15.90;94.10
23411;DHT22;11878;51.774;7.220;2023-06-04T07:15:50;15.30;94.80
23411;DHT22;11878;51.774;7.220;2023-06-04T07:18:52;15.50;93.60
23411;DHT22;11878;51.774;7.220;2023-06-04T07:21:55;17.00;94.70
23411;DHT22;11878;51.774;7.220;2023-06-04T07:24:59;16.30;94.70
23411;DHT22;11878;51.774;7.220;2023-06-04T07:28:06;15.50;94.80
23411;DHT22;11878;51.774;7.220;2023-06-04T07:31:08;16.70;95.80
23411;DHT22;11878;51.774;7.220;2023-06-04T07:34:13;15.90;94.70
23411;DHT22;11878;51.774;7.220;2023-06-04T07:37:20;15.80;94.20
23411;DHT22;11878;51.774;7.220;2023-06-04T07:40:30;16.10;93.40
23411;DHT22;11878;51.774;7.220;2023-06-04T07:43:36;17.20;94.90
23411;DHT22;11878;51.774;7.220;2023-06-04T07:46:39;17.30;94.60
23411;DHT22;11878;51.774;7.220;2023-06-04T07:49:43;17.30;92.60
23411;DHT22;11878;51.774;7.220;2023-06-04T07:53:02;18.00;92.70
23411;DHT22;11878;51.774;7.220;2023-06-04T07:56:05;17.20;94.00
23411;DHT22;11878;51.774;7.220;2023-06-04T07:59:10;16.80;93.80
23411;DHT22;11878;51.774;7.220;2023-06-04T08:02:12;16.70;93.50
23411;DHT22;11878;51.774;7.220;2023-06-04T08:05:18;18.00;92.60
23411;DHT22;11878;51.774;7.220;2023-06-04T08:08:20;15.40;91.70
23411;DHT22;11878;51.774;7.220;2023-06-04T08:11:22;16.90;91.70
23411;DHT22;11878;51.774;7.220;2023-06-04T08:14:25;17.30;91.20
23411;DHT22;11878;51.774;7.220;2023-06-04T08:17:31;18.50;91.90
23411;DHT22;11878;51.774;7.220;2023-06-04T08:20:36;17.30;91.10
23411;DHT22;11878;51.774;7.220;2023-06-04T08:23:41;18.40;89.70
23411;DHT22;11878;51.774;7.220;2023-06-04T08:26:48;18.90;85.60
23411;DHT22;11878;51.774;7.220;2023-06-04T08:29:52;19.10;86.80
23411;DHT22;11878;51.774;7.220;2023-06-04T08:32:57;18.90;88.50
23411;DHT22;11878;51.774;7.220;2023-06-04T08:36:01;18.60;89.50
23411;DHT22;11878;51.774;7.220;2023-06-04T08:39:13;18.00;83.10
23411;DHT22;11878;51.774;7.220;2023-06-04T08:42:31;18.10;85.50
23411;DHT22;11878;51.774;7.220;2023-06-04T08:45:39;17.90;77.70
23411;DHT22;11878;51.774;7.220;2023-06-04T08:48:44;19.10;78.70
23411;DHT22;11878;51.774;7.220;2023-06-04T08:51:47;18.40;78.80
23411;DHT22;11878;51.774;7.220;2023-06-04T08:54:54;19.70;80.70
23411;DHT22;11878;51.774;7.220;2023-06-04T08:58:18;18.80;75.10
23411;DHT22;11878;51.774;7.220;2023-06-04T09:01:21;18.90;72.40
23411;DHT22;11878;51.774;7.220;2023-06-04T09:04:23;19.80;77.80
23411;DHT22;11878;51.774;7.220;2023-06-04T09:07:28;20.00;74.00
23411;DHT22;11878;51.774;7.220;2023-06-04T09:10:31;19.60;69.20
23411;DHT22;11878;51.774;7.220;2023-06-04T09:13:42;19.30;69.60
23411;DHT22;11878;51.774;7.220;2023-06-04T09:16:49;21.20;72.10
23411;DHT22;11878;51.774;7.220;2023-06-04T09:19:54;19.70;62.40
23411;DHT22;11878;51.774;7.220;2023-06-04T09:22:56;20.70;59.60
23411;DHT22;11878;51.774;7.220;2023-06-04T09:26:06;20.20;59.20
23411;DHT22;11878;51.774;7.220;2023-06-04T09:29:15;21.80;55.30
23411;DHT22;11878;51.774;7.220;2023-06-04T09:32:23;20.30;57.30
23411;DHT22;11878;51.774;7.220;2023-06-04T09:35:34;20.40;59.40
23411;DHT22;11878;51.774;7.220;2023-06-04T09:38:37;20.40;56.40
23411;DHT22;11878;51.774;7.220;2023-06-04T09:41:43;20.30;55.50
23411;DHT22;11878;51.774;7.220;2023-06-04T09:44:46;21.00;61.60
23411;DHT22;11878;51.774;7.220;2023-06-04T09:47:51;21.30;55.80
23411;DHT22;11878;51.774;7.220;2023-06-04T09:51:08;22.00;53.60
23411;DHT22;11878;51.774;7.220;2023-06-04T09:54:13;21.70;52.10
23411;DHT22;11878;51.774;7.220;2023-06-04T09:57:22;22.00;56.00
23411;DHT22;11878;51.774;7.220;2023-06-04T10:00:24;21.60;55.40
23411;DHT22;11878;51.774;7.220;2023-06-04T10:03:35;22.70;53.50
23411;DHT22;11878;51.774;7.220;2023-06-04T10:06:41;22.80;50.90
23411;DHT22;11878;51.774;7.220;2023-06-04T10:09:47;22.10;49.50
23411;DHT22;11878;51.774;7.220;2023-06-04T10:13:02;21.80;49.40
23411;DHT22;11878;51.774;7.220;2023-06-04T10:16:07;21.50;50.00
23411;DHT22;11878;51.774;7.220;2023-06-04T10:19:38;22.60;51.60
23411;DHT22;11878;51.774;7.220;2023-06-04T10:22:42;22.50;49.80
23411;DHT22;11878;51.774;7.220;2023-06-04T10:25:51;22.70;49.40
23411;DHT22;11878;51.774;7.220;2023-06-04T10:29:01;23.40;48.20
23411;DHT22;11878;51.774;7.220;2023-06-04T10:32:08;23.50;49.70
23411;DHT22;11878;51.774;7.220;2023-06-04T10:35:32;24.00;49.20
23411;DHT22;11878;51.774;7.220;2023-06-04T10:41:58;25.70;48.20
23411;DHT22;11878;51.774;7.220;2023-06-04T10:45:11;23.80;43.90
23411;DHT22;11878;51.774;7.220;2023-06-04T10:48:17;23.60;43.30
23411;DHT22;11878;51.774;7.220;2023-06-04T10:51:30;24.10;43.00
23411;DHT22;11878;51.774;7.220;2023-06-04T10:54:38;24.50;44.10
23411;DHT22;11878;51.774;7.220;2023-06-04T10:57:57;25.00;42.70
23411;DHT22;11878;51.774;7.220;2023-06-04T11:01:22;24.70;44.00
23411;DHT22;11878;51.774;7.220;2023-06-04T11:04:35;23.80;39.80
23411;DHT22;11878;51.774;7.220;2023-06-04T11:07:51;25.50;43.90
23411;DHT22;11878;51.774;7.220;2023-06-04T11:11:20;24.70;45.10
23411;DHT22;11878;51.774;7.220;2023-06-04T11:14:28;24.40;41.70
23411;DHT22;11878;51.774;7.220;2023-06-04T11:17:36;24.20;40.60
23411;DHT22;11878;51.774;7.220;2023-06-04T11:20:47;23.90;38.60
23411;DHT22;11878;51.774;7.220;2023-06-04T11:24:17;23.80;42.30
23411;DHT22;11878;51.774;7.220;2023-06-04T11:27:25;22.90;45.40
23411;DHT22;11878;51.774;7.220;2023-06-04T11:30:41;23.00;44.40
23411;DHT22;11878;51.774;7.220;2023-06-04T11:33:44;22.80;40.90
23411;DHT22;11878;51.774;7.220;2023-06-04T11:36:46;22.40;47.10
23411;DHT22;11878;51.774;7.220;2023-06-04T11:39:51;22.30;42.20
23411;DHT22;11878;51.774;7.220;2023-06-04T11:42:53;22.20;43.50
23411;DHT22;11878;51.774;7.220;2023-06-04T11:45:55;22.90;44.10
23411;DHT22;11878;51.774;7.220;2023-06-04T11:49:03;21.90;44.40
23411;DHT22;11878;51.774;7.220;2023-06-04T11:52:08;21.90;45.10
23411;DHT22;11878;51.774;7.220;2023-06-04T11:55:10;22.00;42.20
23411;DHT22;11878;51.774;7.220;2023-06-04T11:58:13;21.80;40.90
23411;DHT22;11878;51.774;7.220;2023-06-04T12:01:15;21.80;46.00
23411;DHT22;11878;51.774;7.220;2023-06-04T12:04:21;21.90;44.60
23411;DHT22;11878;51.774;7.220;2023-06-04T12:07:23;21.90;45.80
23411;DHT22;11878;51.774;7.220;2023-06-04T12:10:26;21.70;43.00
23411;DHT22;11878;51.774;7.220;2023-06-04T12:13:37;21.50;43.70
23411;DHT22;11878;51.774;7.220;2023-06-04T12:16:39;21.60;41.70
23411;DHT22;11878;51.774;7.220;2023-06-04T12:19:51;21.80;44.60
23411;DHT22;11878;51.774;7.220;2023-06-04T12:22:53;21.60;45.60
23411;DHT22;11878;51.774;7.220;2023-06-04T12:25:54;21.50;44.40
23411;DHT22;11878;51.774;7.220;2023-06-04T12:29:01;21.60;47.30
23411;DHT22;11878;51.774;7.220;2023-06-04T12:32:09;21.70;45.30
23411;DHT22;11878;51.774;7.220;2023-06-04T12:35:13;21.50;42.40
23411;DHT22;11878;51.774;7.220;2023-06-04T12:38:17;21.70;44.50
23411;DHT22;11878;51.774;7.220;2023-06-04T12:41:19;21.80;45.80
23411;DHT22;11878;51.774;7.220;2023-06-04T12:44:22;21.70;44.20
23411;DHT22;11878;51.774;7.220;2023-06-04T12:47:24;21.50;43.50
23411;DHT22;11878;51.774;7.220;2023-06-04T12:50:26;21.50;42.90
23411;DHT22;11878;51.774;7.220;2023-06-04T12:53:30;21.50;44.10
23411;DHT22;11878;51.774;7.220;2023-06-04T12:56:32;21.70;42.50
23411;DHT22;11878;51.774;7.220;2023-06-04T12:59:34;21.60;40.70
23411;DHT22;11878;51.774;7.220;2023-06-04T13:02:37;21.40;42.20
23411;DHT22;11878;51.774;7.220;2023-06-04T13:05:39;21.80;44.50
23411;DHT22;11878;51.774;7.220;2023-06-04T13:08:41;21.50;41.30
23411;DHT22;11878;51.774;7.220;2023-06-04T13:11:45;21.50;42.80
23411;DHT22;11878;51.774;7.220;2023-06-04T13:14:47;21.40;40.90
23411;DHT22;11878;51.774;7.220;2023-06-04T13:17:49;21.50;43.00
23411;DHT22;11878;51.774;7.220;2023-06-04T13:20:51;21.90;42.90
23411;DHT22;11878;51.774;7.220;2023-06-04T13:23:54;21.90;43.60
23411;DHT22;11878;51.774;7.220;2023-06-04T13:26:57;21.80;41.90
23411;DHT22;11878;51.774;7.220;2023-06-04T13:30:00;21.80;43.50
23411;DHT22;11878;51.774;7.220;2023-06-04T13:33:02;21.80;43.00
23411;DHT22;11878;51.774;7.220;2023-06-04T13:36:04;21.80;42.80
23411;DHT22;11878;51.774;7.220;2023-06-04T13:39:06;21.70;42.60
23411;DHT22;11878;51.774;7.220;2023-06-04T13:42:08;21.80;42.70
23411;DHT22;11878;51.774;7.220;2023-06-04T13:45:10;21.60;41.70
23411;DHT22;11878;51.774;7.220;2023-06-04T13:48:13;21.70;43.00
23411;DHT22;11878;51.774;7.220;2023-06-04T13:51:15;22.00;41.10
23411;DHT22;11878;51.774;7.220;2023-06-04T13:54:17;21.80;39.50
23411;DHT22;11878;51.774;7.220;2023-06-04T13:57:19;21.90;42.90
23411;DHT22;11878;51.774;7.220;2023-06-04T14:00:21;21.80;40.60
23411;DHT22;11878;51.774;7.220;2023-06-04T14:03:31;21.80;42.40
23411;DHT22;11878;51.774;7.220;2023-06-04T14:06:34;21.90;42.30
23411;DHT22;11878;51.774;7.220;2023-06-04T14:09:38;21.90;42.60
23411;DHT22;11878;51.774;7.220;2023-06-04T14:12:40;22.00;41.40
23411;DHT22;11878;51.774;7.220;2023-06-04T14:15:43;22.00;44.40
23411;DHT22;11878;51.774;7.220;2023-06-04T14:18:45;22.00;43.60
23411;DHT22;11878;51.774;7.220;2023-06-04T14:21:49;21.60;41.90
23411;DHT22;11878;51.774;7.220;2023-06-04T14:24:52;21.70;41.80
23411;DHT22;11878;51.774;7.220;2023-06-04T14:27:54;21.80;43.20
23411;DHT22;11878;51.774;7.220;2023-06-04T14:30:56;21.80;43.20
23411;DHT22;11878;51.774;7.220;2023-06-04T14:34:00;21.90;41.10
23411;DHT22;11878;51.774;7.220;2023-06-04T14:37:02;22.00;40.30
23411;DHT22;11878;51.774;7.220;2023-06-04T14:40:05;21.90;40.70
23411;DHT22;11878;51.774;7.220;2023-06-04T14:43:08;21.90;41.20
23411;DHT22;11878;51.774;7.220;2023-06-04T14:46:12;21.90;40.70
23411;DHT22;11878;51.774;7.220;2023-06-04T14:49:15;22.10;42.30
23411;DHT22;11878;51.774;7.220;2023-06-04T14:52:17;22.00;43.00
23411;DHT22;11878;51.774;7.220;2023-06-04T14:55:19;22.10;42.00
23411;DHT22;11878;51.774;7.220;2023-06-04T14:58:24;22.10;43.60
23411;DHT22;11878;51.774;7.220;2023-06-04T15:01:26;22.10;42.70
23411;DHT22;11878;51.774;7.220;2023-06-04T15:04:28;22.10;43.00
23411;DHT22;11878;51.774;7.220;2023-06-04T15:07:30;22.10;41.70
23411;DHT22;11878;51.774;7.220;2023-06-04T15:10:33;22.40;43.70
23411;DHT22;11878;51.774;7.220;2023-06-04T15:13:37;22.10;43.40
23411;DHT22;11878;51.774;7.220;2023-06-04T15:16:39;21.70;42.50
23411;DHT22;11878;51.774;7.220;2023-06-04T15:19:41;22.00;44.40
23411;DHT22;11878;51.774;7.220;2023-06-04T15:22:43;22.00;43.70
23411;DHT22;11878;51.774;7.220;2023-06-04T15:25:44;21.80;44.00
23411;DHT22;11878;51.774;7.220;2023-06-04T15:28:47;22.00;45.50
23411;DHT22;11878;51.774;7.220;2023-06-04T15:31:49;22.00;45.30
23411;DHT22;11878;51.774;7.220;2023-06-04T15:34:51;22.10;45.90
23411;DHT22;11878;51.774;7.220;2023-06-04T15:37:53;22.70;43.00
23411;DHT22;11878;51.774;7.220;2023-06-04T15:40:58;23.20;45.10
23411;DHT22;11878;51.774;7.220;2023-06-04T15:44:00;22.10;44.80
23411;DHT22;11878;51.774;7.220;2023-06-04T15:47:04;22.10;45.40
23411;DHT22;11878;51.774;7.220;2023-06-04T15:50:06;22.00;43.70
23411;DHT22;11878;51.774;7.220;2023-06-04T15:53:08;22.00;44.10
23411;DHT22;11878;51.774;7.220;2023-06-04T15:56:11;22.20;46.40
23411;DHT22;11878;51.774;7.220;2023-06-04T15:59:15;23.60;44.60
23411;DHT22;11878;51.774;7.220;2023-06-04T16:02:17;22.20;45.00
23411;DHT22;11878;51.774;7.220;2023-06-04T16:05:19;22.10;43.70
23411;DHT22;11878;51.774;7.220;2023-06-04T16:08:22;22.20;44.40
23411;DHT22;11878;51.774;7.220;2023-06-04T16:11:23;22.60;44.80
23411;DHT22;11878;51.774;7.220;2023-06-04T16:14:27;22.70;43.40
23411;DHT22;11878;51.774;7.220;2023-06-04T16:17:32;24.30;42.50
23411;DHT22;11878;51.774;7.220;2023-06-04T16:20:34;23.40;41.60
23411;DHT22;11878;51.774;7.220;2023-06-04T16:23:36;23.10;41.70
23411;DHT22;11878;51.774;7.220;2023-06-04T16:26:38;23.00;43.30
23411;DHT22;11878;51.774;7.220;2023-06-04T16:29:40;22.70;43.70
23411;DHT22;11878;51.774;7.220;2023-06-04T16:32:42;22.70;43.20
23411;DHT22;11878;51.774;7.220;2023-06-04T16:35:44;23.00;42.80
23411;DHT22;11878;51.774;7.220;2023-06-04T16:38:46;23.30;41.40
23411;DHT22;11878;51.774;7.220;2023-06-04T16:41:48;23.40;42.30
23411;DHT22;11878;51.774;7.220;2023-06-04T16:44:50;23.00;43.10
23411;DHT22;11878;51.774;7.220;2023-06-04T16:47:53;22.80;43.90
23411;DHT22;11878;51.774;7.220;2023-06-04T16:50:55;22.80;46.90
23411;DHT22;11878;51.774;7.220;2023-06-04T16:53:57;22.80;45.90
23411;DHT22;11878;51.774;7.220;2023-06-04T16:57:00;22.70;43.20
23411;DHT22;11878;51.774;7.220;2023-06-04T17:00:06;22.60;44.10
23411;DHT22;11878;51.774;7.220;2023-06-04T17:03:26;22.70;45.30
23411;DHT22;11878;51.774;7.220;2023-06-04T17:06:29;22.50;46.10
23411;DHT22;11878;51.774;7.220;2023-06-04T17:09:31;22.60;45.80
23411;DHT22;11878;51.774;7.220;2023-06-04T17:12:34;22.50;45.00
23411;DHT22;11878;51.774;7.220;2023-06-04T17:15:41;22.50;46.60
23411;DHT22;11878;51.774;7.220;2023-06-04T17:18:43;22.60;47.70
23411;DHT22;11878;51.774;7.220;2023-06-04T17:21:46;22.60;46.70
23411;DHT22;11878;51.774;7.220;2023-06-04T17:24:51;22.50;48.70
23411;DHT22;11878;51.774;7.220;2023-06-04T17:27:53;22.50;48.90
23411;DHT22;11878;51.774;7.220;2023-06-04T17:30:55;22.60;47.90
23411;DHT22;11878;51.774;7.220;2023-06-04T17:33:58;22.60;47.10
23411;DHT22;11878;51.774;7.220;2023-06-04T17:37:00;22.60;47.80
23411;DHT22;11878;51.774;7.220;2023-06-04T17:40:03;22.50;48.30
23411;DHT22;11878;51.774;7.220;2023-06-04T17:43:05;20.70;47.60
23411;DHT22;11878;51.774;7.220;2023-06-04T17:46:08;22.00;48.00
23411;DHT22;11878;51.774;7.220;2023-06-04T17:49:11;21.80;48.60
23411;DHT22;11878;51.774;7.220;2023-06-04T17:52:15;21.80;49.50
23411;DHT22;11878;51.774;7.220;2023-06-04T17:55:17;21.60;48.80
23411;DHT22;11878;51.774;7.220;2023-06-04T17:58:19;21.60;50.00
23411;DHT22;11878;51.774;7.220;2023-06-04T18:01:29;21.50;48.80
23411;DHT22;11878;51.774;7.220;2023-06-04T18:04:33;21.40;49.30
23411;DHT22;11878;51.774;7.220;2023-06-04T18:07:35;21.40;50.10
23411;DHT22;11878;51.774;7.220;2023-06-04T18:10:40;21.30;48.30
23411;DHT22;11878;51.774;7.220;2023-06-04T18:13:46;21.20;49.30
23411;DHT22;11878;51.774;7.220;2023-06-04T18:16:48;21.20;50.80
23411;DHT22;11878;51.774;7.220;2023-06-04T18:19:50;21.10;52.60
23411;DHT22;11878;51.774;7.220;2023-06-04T18:22:54;21.00;50.70
23411;DHT22;11878;51.774;7.220;2023-06-04T18:25:58;20.90;52.00
23411;DHT22;11878;51.774;7.220;2023-06-04T18:29:01;21.00;53.00
23411;DHT22;11878;51.774;7.220;2023-06-04T18:32:04;21.00;51.70
23411;DHT22;11878;51.774;7.220;2023-06-04T18:35:06;20.80;53.30
23411;DHT22;11878;51.774;7.220;2023-06-04T18:38:08;20.80;55.60
23411;DHT22;11878;51.774;7.220;2023-06-04T18:41:10;20.70;54.40
23411;DHT22;11878;51.774;7.220;2023-06-04T18:44:13;20.70;60.20
23411;DHT22;11878;51.774;7.220;2023-06-04T18:47:15;20.60;58.00
23411;DHT22;11878;51.774;7.220;2023-06-04T18:50:17;20.50;55.90
23411;DHT22;11878;51.774;7.220;2023-06-04T18:53:19;20.50;56.00
23411;DHT22;11878;51.774;7.220;2023-06-04T18:56:21;20.60;59.90
23411;DHT22;11878;51.774;7.220;2023-06-04T18:59:24;20.40;60.00
23411;DHT22;11878;51.774;7.220;2023-06-04T19:02:26;20.30;65.30
23411;DHT22;11878;51.774;7.220;2023-06-04T19:05:28;20.20;59.10
23411;DHT22;11878;51.774;7.220;2023-06-04T19:08:31;20.10;66.10
23411;DHT22;11878;51.774;7.220;2023-06-04T19:11:33;20.40;67.10
23411;DHT22;11878;51.774;7.220;2023-06-04T19:14:35;19.90;69.30
23411;DHT22;11878;51.774;7.220;2023-06-04T19:17:39;19.80;68.20
23411;DHT22;11878;51.774;7.220;2023-06-04T19:20:40;19.70;64.90
23411;DHT22;11878;51.774;7.220;2023-06-04T19:23:43;19.70;68.10
23411;DHT22;11878;51.774;7.220;2023-06-04T19:26:45;20.20;77.10
23411;DHT22;11878;51.774;7.220;2023-06-04T19:29:47;19.50;75.90
23411;DHT22;11878;51.774;7.220;2023-06-04T19:32:52;19.30;77.60